createdAt,value
2022-07-28T00:01:32.932Z,0.60
2022-07-28T00:03:34.714Z,0.40
2022-07-28T00:05:36.443Z,0.40
2022-07-28T00:07:38.225Z,0.40
2022-07-28T00:09:39.995Z,0.30
2022-07-28T00:11:54.355Z,0.40
2022-07-28T00:13:56.558Z,0.47
2022-07-28T00:15:58.763Z,0.40
2022-07-28T00:18:01.174Z,0.43
2022-07-28T00:20:05.480Z,0.40
2022-07-28T00:22:07.617Z,0.38
2022-07-28T00:24:09.893Z,0.35
2022-07-28T00:26:12.590Z,0.40
2022-07-28T00:28:14.343Z,0.93
2022-07-28T00:30:16.122Z,0.65
2022-07-28T00:32:20.708Z,0.30
2022-07-28T00:34:22.865Z,0.47
2022-07-28T00:36:28.427Z,0.50
2022-07-28T00:38:30.126Z,0.57
2022-07-28T00:40:50.801Z,0.40
2022-07-28T00:42:52.547Z,0.52
2022-07-28T00:44:54.265Z,0.70
2022-07-28T00:46:55.984Z,0.57
2022-07-28T00:48:57.869Z,0.50
2022-07-28T00:50:59.669Z,1.00
2022-07-28T00:53:01.760Z,0.60
2022-07-28T00:55:05.582Z,0.40
2022-07-28T00:57:07.335Z,0.80
2022-07-28T00:59:10.222Z,0.60
2022-07-28T01:01:16.044Z,0.50
2022-07-28T01:03:18.759Z,1.05
2022-07-28T01:05:43.273Z,0.77
2022-07-28T01:08:19.168Z,0.47
2022-07-28T01:10:43.323Z,0.60
2022-07-28T01:13:11.625Z,0.40
2022-07-28T01:15:36.805Z,0.32
2022-07-28T01:18:04.620Z,0.55
2022-07-28T01:20:09.235Z,0.88
2022-07-28T01:22:15.840Z,0.70
2022-07-28T01:24:31.444Z,0.30
2022-07-28T01:26:58.533Z,0.60
2022-07-28T01:29:03.773Z,0.30
2022-07-28T01:31:09.252Z,0.30
2022-07-28T01:33:48.057Z,0.50
2022-07-28T01:36:02.126Z,0.50
2022-07-28T01:38:07.937Z,0.40
2022-07-28T01:40:12.071Z,0.40
2022-07-28T01:42:17.844Z,0.50
2022-07-28T01:44:25.239Z,0.50
2022-07-28T01:46:28.123Z,0.45
2022-07-28T01:48:32.057Z,0.70
2022-07-28T01:50:35.253Z,0.30
2022-07-28T01:52:38.904Z,0.50
2022-07-28T01:54:45.704Z,0.57
2022-07-28T01:56:51.952Z,0.70
2022-07-28T01:58:57.521Z,0.40
2022-07-28T02:01:01.062Z,0.45
2022-07-28T02:03:07.129Z,0.60
2022-07-28T02:05:12.699Z,0.50
2022-07-28T02:07:19.537Z,0.60
2022-07-28T02:09:23.021Z,0.57
2022-07-28T02:11:42.363Z,0.73
2022-07-28T02:13:48.336Z,0.60
2022-07-28T02:15:50.162Z,1.35
2022-07-28T02:17:59.525Z,0.50
2022-07-28T02:20:02.873Z,0.63
2022-07-28T02:22:06.987Z,0.60
2022-07-28T02:24:09.635Z,0.55
2022-07-28T02:26:13.748Z,0.60
2022-07-28T02:28:19.025Z,0.63
2022-07-28T02:30:46.990Z,0.55
2022-07-28T02:32:52.100Z,0.90
2022-07-28T02:34:58.387Z,0.50
2022-07-28T02:37:02.409Z,0.50
2022-07-28T02:39:22.205Z,0.80
2022-07-28T02:41:27.637Z,0.70
2022-07-28T02:43:49.915Z,0.75
2022-07-28T02:45:55.824Z,0.50
2022-07-28T02:48:05.652Z,0.50
2022-07-28T02:50:08.794Z,0.80
2022-07-28T02:52:12.296Z,0.50
2022-07-28T02:54:17.797Z,0.63
2022-07-28T02:56:20.374Z,0.47
2022-07-28T02:58:24.394Z,0.60
2022-07-28T03:00:27.369Z,0.60
2022-07-28T03:02:30.933Z,0.60
2022-07-28T03:04:52.257Z,0.70
2022-07-28T03:06:54.055Z,0.75
2022-07-28T03:08:57.132Z,1.00
2022-07-28T03:11:09.820Z,0.73
2022-07-28T03:13:11.751Z,0.70
2022-07-28T03:15:14.344Z,0.60
2022-07-28T03:17:16.638Z,0.60
2022-07-28T03:19:18.493Z,0.70
2022-07-28T03:21:20.336Z,0.60
2022-07-28T03:23:32.417Z,0.50
2022-07-28T03:25:46.621Z,0.60
2022-07-28T03:27:56.048Z,0.93
2022-07-28T03:30:15.342Z,0.55
2022-07-28T03:32:22.931Z,0.65
2022-07-28T03:34:25.125Z,0.50
2022-07-28T03:36:35.791Z,0.70
2022-07-28T03:40:43.619Z,0.70
2022-07-28T03:42:49.695Z,0.85
2022-07-28T03:44:52.172Z,0.63
2022-07-28T03:46:53.986Z,0.60
2022-07-28T03:48:56.044Z,0.60
2022-07-28T03:50:58.974Z,0.70
2022-07-28T03:53:04.760Z,0.50
2022-07-28T03:55:07.783Z,1.08
2022-07-28T03:57:09.583Z,0.68
2022-07-28T03:59:11.557Z,0.63
2022-07-28T04:01:13.348Z,0.70
2022-07-28T04:03:22.697Z,0.65
2022-07-28T04:05:37.584Z,0.93
2022-07-28T04:07:40.505Z,0.60
2022-07-28T04:09:42.495Z,0.80
2022-07-28T04:11:44.575Z,0.73
2022-07-28T04:13:46.534Z,0.47
2022-07-28T04:15:48.454Z,0.80
2022-07-28T04:18:04.086Z,1.30
2022-07-28T04:20:07.367Z,0.70
2022-07-28T04:22:09.275Z,0.55
2022-07-28T04:24:12.098Z,0.60
2022-07-28T04:26:14.382Z,0.88
2022-07-28T04:28:16.589Z,0.60
2022-07-28T04:30:21.575Z,1.30
2022-07-28T04:32:23.786Z,0.70
2022-07-28T04:34:25.752Z,0.65
2022-07-28T04:36:27.903Z,0.90
2022-07-28T04:38:29.985Z,0.60
2022-07-28T04:40:33.821Z,0.90
2022-07-28T04:42:38.350Z,0.60
2022-07-28T04:44:42.817Z,0.68
2022-07-28T04:46:45.029Z,0.73
2022-07-28T04:48:47.121Z,1.00
2022-07-28T04:50:49.454Z,0.80
2022-07-28T04:52:51.287Z,0.70
2022-07-28T04:54:54.277Z,1.60
2022-07-28T04:56:56.368Z,0.70
2022-07-28T04:58:58.737Z,1.13
2022-07-28T05:01:01.676Z,0.63
2022-07-28T05:03:04.550Z,0.70
2022-07-28T05:05:07.050Z,0.70
2022-07-28T05:07:11.946Z,1.05
2022-07-28T05:09:15.084Z,0.68
2022-07-28T05:11:17.690Z,0.80
2022-07-28T05:13:19.499Z,0.75
2022-07-28T05:15:21.634Z,1.25
2022-07-28T05:17:25.649Z,1.33
2022-07-28T05:19:27.361Z,0.98
2022-07-28T05:21:29.186Z,0.68
2022-07-28T05:23:30.996Z,0.63
2022-07-28T05:25:32.737Z,0.90
2022-07-28T05:27:34.713Z,1.10
2022-07-28T05:29:47.368Z,0.73
2022-07-28T05:31:49.819Z,0.95
2022-07-28T05:33:52.384Z,1.08
2022-07-28T05:35:57.554Z,0.77
2022-07-28T05:38:07.598Z,0.93
2022-07-28T05:40:15.372Z,0.85
2022-07-28T05:42:17.418Z,0.70
2022-07-28T05:44:19.627Z,1.05
2022-07-28T05:46:22.420Z,0.70
2022-07-28T05:48:24.205Z,1.00
2022-07-28T05:50:26.508Z,0.90
2022-07-28T05:52:28.922Z,0.73
2022-07-28T05:54:30.623Z,0.98
2022-07-28T05:56:32.335Z,0.90
2022-07-28T05:58:34.241Z,1.00
2022-07-28T06:00:36.469Z,0.85
2022-07-28T06:02:41.964Z,1.35
2022-07-28T06:04:44.107Z,0.60
2022-07-28T06:06:45.857Z,0.65
2022-07-28T06:08:48.182Z,0.77
2022-07-28T06:10:59.207Z,0.75
2022-07-28T06:13:04.376Z,1.00
2022-07-28T06:15:07.021Z,0.80
2022-07-28T06:17:08.958Z,0.60
2022-07-28T06:19:11.026Z,0.60
2022-07-28T06:21:12.845Z,0.60
2022-07-28T06:23:20.602Z,0.90
2022-07-28T06:25:26.854Z,0.65
2022-07-28T06:27:28.585Z,0.70
2022-07-28T06:29:30.719Z,0.77
2022-07-28T06:31:32.831Z,0.63
2022-07-28T06:33:35.847Z,0.70
2022-07-28T06:35:46.709Z,1.80
2022-07-28T06:38:05.586Z,0.88
2022-07-28T06:40:08.635Z,0.93
2022-07-28T06:42:11.437Z,1.38
2022-07-28T06:44:13.786Z,1.00
2022-07-28T06:46:19.386Z,1.23
2022-07-28T06:48:23.623Z,1.55
2022-07-28T06:50:27.894Z,1.55
2022-07-28T06:52:30.365Z,1.17
2022-07-28T06:54:32.466Z,1.45
2022-07-28T06:56:35.021Z,1.20
2022-07-28T06:58:37.405Z,1.70
2022-07-28T07:00:39.273Z,0.88
2022-07-28T07:02:42.186Z,1.20
2022-07-28T07:04:44.669Z,1.05
2022-07-28T07:06:46.564Z,1.02
2022-07-28T07:08:48.832Z,1.20
2022-07-28T07:10:50.833Z,1.48
2022-07-28T07:12:52.727Z,0.80
2022-07-28T07:14:54.575Z,1.10
2022-07-28T07:16:56.770Z,1.10
2022-07-28T07:18:59.122Z,1.10
2022-07-28T07:21:01.118Z,1.00
2022-07-28T07:23:03.037Z,1.10
2022-07-28T07:25:13.332Z,0.98
2022-07-28T07:27:15.240Z,1.20
2022-07-28T07:29:17.126Z,0.82
2022-07-28T07:31:19.361Z,1.02
2022-07-28T07:33:21.653Z,0.98
2022-07-28T07:35:23.630Z,1.20
2022-07-28T07:37:26.981Z,0.80
2022-07-28T07:39:29.048Z,0.77
2022-07-28T07:41:30.874Z,1.10
2022-07-28T07:43:34.503Z,0.80
2022-07-28T07:45:37.179Z,1.27
2022-07-28T07:47:38.978Z,1.10
2022-07-28T07:49:45.094Z,0.82
2022-07-28T07:51:48.255Z,1.45
2022-07-28T07:53:50.025Z,1.95
2022-07-28T07:55:52.255Z,1.65
2022-07-28T07:58:07.502Z,1.10
2022-07-28T08:00:28.248Z,1.00
2022-07-28T08:02:31.953Z,0.75
2022-07-28T08:04:37.148Z,0.80
2022-07-28T08:06:40.348Z,1.00
2022-07-28T08:08:46.464Z,0.80
2022-07-28T08:10:51.497Z,1.27
2022-07-28T08:12:53.423Z,1.00
2022-07-28T08:14:56.249Z,0.70
2022-07-28T08:16:59.570Z,0.80
2022-07-28T08:19:01.843Z,1.27
2022-07-28T08:21:04.000Z,1.27
2022-07-28T08:23:06.546Z,0.90
2022-07-28T08:25:08.760Z,0.93
2022-07-28T08:27:11.191Z,1.20
2022-07-28T08:29:13.439Z,1.10
2022-07-28T08:31:18.332Z,0.90
2022-07-28T08:33:22.664Z,0.98
2022-07-28T08:35:35.516Z,1.23
2022-07-28T08:37:42.422Z,0.95
2022-07-28T08:39:44.129Z,0.88
2022-07-28T08:42:25.454Z,1.00
2022-07-28T08:44:50.505Z,0.80
2022-07-28T08:46:54.415Z,1.00
2022-07-28T08:49:01.543Z,1.17
2022-07-28T08:51:10.792Z,0.80
2022-07-28T08:53:15.243Z,0.88
2022-07-28T08:55:23.325Z,0.85
2022-07-28T08:57:32.725Z,0.90
2022-07-28T08:59:35.459Z,1.20
2022-07-28T09:01:39.490Z,1.02
2022-07-28T09:03:42.677Z,1.00
2022-07-28T09:05:45.612Z,0.73
2022-07-28T09:07:54.627Z,0.75
2022-07-28T09:10:02.410Z,1.00
2022-07-28T09:12:08.184Z,0.80
2022-07-28T09:14:10.277Z,0.80
2022-07-28T09:16:15.229Z,1.10
2022-07-28T09:18:17.798Z,0.82
2022-07-28T09:20:20.914Z,1.48
2022-07-28T09:22:23.473Z,0.80
2022-07-28T09:24:37.642Z,0.70
2022-07-28T09:27:00.134Z,0.70
2022-07-28T09:29:04.341Z,0.88
2022-07-28T09:31:06.575Z,1.02
2022-07-28T09:33:41.102Z,1.35
2022-07-28T09:35:46.342Z,1.40
2022-07-28T09:38:06.882Z,0.88
2022-07-28T09:40:13.339Z,0.88
2022-07-28T09:42:15.928Z,0.80
2022-07-28T09:44:21.535Z,0.80
2022-07-28T09:46:25.911Z,0.88
2022-07-28T09:48:28.039Z,1.05
2022-07-28T09:50:31.101Z,0.90
2022-07-28T09:52:35.334Z,0.82
2022-07-28T09:54:40.702Z,0.77
2022-07-28T09:56:45.399Z,0.80
2022-07-28T09:58:56.093Z,0.70
2022-07-28T10:01:16.207Z,1.05
2022-07-28T10:03:26.587Z,0.60
2022-07-28T10:05:40.495Z,0.73
2022-07-28T10:08:08.314Z,0.80
2022-07-28T10:10:11.420Z,0.75
2022-07-28T10:12:23.074Z,0.98
2022-07-28T10:14:33.648Z,1.77
2022-07-28T10:16:52.778Z,0.82
2022-07-28T10:18:56.189Z,0.80
2022-07-28T10:20:58.134Z,1.00
2022-07-28T10:23:09.528Z,0.93
2022-07-28T10:25:15.533Z,0.70
2022-07-28T10:27:17.604Z,1.00
2022-07-28T10:29:22.528Z,0.77
2022-07-28T10:31:33.087Z,1.25
2022-07-28T10:33:39.221Z,0.90
2022-07-28T10:35:54.267Z,1.00
2022-07-28T10:38:30.539Z,1.17
2022-07-28T10:40:36.276Z,1.05
2022-07-28T10:42:41.013Z,0.80
2022-07-28T10:44:45.353Z,0.90
2022-07-28T10:46:47.692Z,1.08
2022-07-28T10:48:49.753Z,1.00
2022-07-28T10:50:54.119Z,1.00
2022-07-28T10:52:59.423Z,1.20
2022-07-28T10:55:35.598Z,1.45
2022-07-28T10:57:43.770Z,1.00
2022-07-28T11:00:12.351Z,1.00
2022-07-28T11:02:52.601Z,1.58
2022-07-28T11:04:56.254Z,0.85
2022-07-28T11:07:11.384Z,1.23
2022-07-28T11:09:16.889Z,0.68
2022-07-28T11:11:53.746Z,0.65
2022-07-28T11:14:24.813Z,1.10
2022-07-28T11:16:27.073Z,1.10
2022-07-28T11:18:30.763Z,0.93
2022-07-28T11:20:53.350Z,1.05
2022-07-28T11:23:36.976Z,1.17
2022-07-28T11:25:38.709Z,1.05
2022-07-28T11:27:45.200Z,1.38
2022-07-28T11:29:48.041Z,1.00
2022-07-28T11:31:51.649Z,1.73
2022-07-28T11:33:57.462Z,1.27
2022-07-28T11:36:00.063Z,1.13
2022-07-28T11:38:08.975Z,1.13
2022-07-28T11:40:33.595Z,1.17
2022-07-28T11:42:35.979Z,1.38
2022-07-28T11:44:38.422Z,1.02
2022-07-28T11:46:40.819Z,1.25
2022-07-28T11:48:46.932Z,1.13
2022-07-28T11:51:04.140Z,0.90
2022-07-28T11:53:06.649Z,1.25
2022-07-28T11:55:08.590Z,0.90
2022-07-28T11:57:11.735Z,1.58
2022-07-28T11:59:16.630Z,1.00
2022-07-28T12:01:21.042Z,1.42
2022-07-28T12:03:49.452Z,1.23
2022-07-28T12:05:57.740Z,1.10
2022-07-28T12:08:10.514Z,1.08
2022-07-28T12:10:54.151Z,1.00
2022-07-28T12:12:53.654Z,1.42
2022-07-28T12:14:56.881Z,1.40
2022-07-28T12:16:58.704Z,1.20
2022-07-28T12:19:01.954Z,1.23
2022-07-28T12:21:05.311Z,1.10
2022-07-28T12:23:10.350Z,1.48
2022-07-28T12:25:13.953Z,1.27
2022-07-28T12:27:16.632Z,1.60
2022-07-28T12:29:20.676Z,1.40
2022-07-28T12:31:30.271Z,1.55
2022-07-28T12:33:32.385Z,1.70
2022-07-28T12:35:34.148Z,1.50
2022-07-28T12:37:35.986Z,1.60
2022-07-28T12:39:43.553Z,2.58
2022-07-28T12:41:45.681Z,1.50
2022-07-28T12:43:52.657Z,1.25
2022-07-28T12:45:55.575Z,1.38
2022-07-28T12:48:09.606Z,1.50
2022-07-28T12:50:17.466Z,1.40
2022-07-28T12:52:22.472Z,1.30
2022-07-28T12:54:36.526Z,1.30
2022-07-28T12:57:04.840Z,0.85
2022-07-28T12:59:11.597Z,1.00
2022-07-28T13:01:13.359Z,1.27
2022-07-28T13:03:27.140Z,1.67
2022-07-28T13:05:31.533Z,1.38
2022-07-28T13:07:33.803Z,1.15
2022-07-28T13:09:50.196Z,1.77
2022-07-28T13:12:02.431Z,1.10
2022-07-28T13:14:04.325Z,1.20
2022-07-28T13:16:13.148Z,1.25
2022-07-28T13:18:15.041Z,1.00
2022-07-28T13:20:16.792Z,1.17
2022-07-28T13:22:32.972Z,1.00
2022-07-28T13:24:34.877Z,1.15
2022-07-28T13:26:44.154Z,1.80
2022-07-28T13:28:46.304Z,1.00
2022-07-28T13:30:48.402Z,0.70
2022-07-28T13:32:50.323Z,0.73
2022-07-28T13:34:52.167Z,1.63
2022-07-28T13:36:54.352Z,1.08
2022-07-28T13:38:56.484Z,0.73
2022-07-28T13:40:58.234Z,0.88
2022-07-28T13:42:59.995Z,1.10
2022-07-28T13:45:02.133Z,0.90
2022-07-28T13:47:07.013Z,0.90
2022-07-28T13:49:08.842Z,1.95
2022-07-28T13:51:14.599Z,0.90
2022-07-28T13:53:16.572Z,0.82
2022-07-28T13:55:22.611Z,0.90
2022-07-28T13:57:24.857Z,1.00
2022-07-28T13:59:28.808Z,1.67
2022-07-28T14:01:31.337Z,0.98
2022-07-28T14:03:55.298Z,1.10
2022-07-28T14:05:59.901Z,1.13
2022-07-28T14:08:05.996Z,0.70
2022-07-28T14:10:08.462Z,1.23
2022-07-28T14:12:10.434Z,1.00
2022-07-28T14:14:12.850Z,1.20
2022-07-28T14:16:15.137Z,1.27
2022-07-28T14:18:17.074Z,0.85
2022-07-28T14:20:18.756Z,0.85
2022-07-28T14:22:21.112Z,0.77
2022-07-28T14:24:23.067Z,0.75
2022-07-28T14:26:40.215Z,0.95
2022-07-28T14:28:42.081Z,0.70
2022-07-28T14:30:43.918Z,1.08
2022-07-28T14:32:46.179Z,0.93
2022-07-28T14:34:47.978Z,0.70
2022-07-28T14:36:53.247Z,0.80
2022-07-28T14:38:55.011Z,0.80
2022-07-28T14:40:56.819Z,0.90
2022-07-28T14:42:58.532Z,1.00
2022-07-28T14:45:02.422Z,1.00
2022-07-28T14:47:05.055Z,0.82
2022-07-28T14:49:07.143Z,0.80
2022-07-28T14:51:11.502Z,0.88
2022-07-28T14:53:17.319Z,0.88
2022-07-28T14:55:19.539Z,1.25
2022-07-28T14:57:40.295Z,1.10
2022-07-28T14:59:43.319Z,0.80
2022-07-28T15:01:45.306Z,0.80
2022-07-28T15:03:50.975Z,0.70
2022-07-28T15:05:53.023Z,0.80
2022-07-28T15:08:06.399Z,0.70
2022-07-28T15:10:09.147Z,0.80
2022-07-28T15:12:11.091Z,0.70
2022-07-28T15:14:13.227Z,0.80
2022-07-28T15:16:16.826Z,0.85
2022-07-28T15:18:18.595Z,1.30
2022-07-28T15:20:20.467Z,0.70
2022-07-28T15:22:26.223Z,1.00
2022-07-28T15:24:30.661Z,1.08
2022-07-28T15:26:32.385Z,1.05
2022-07-28T15:28:34.164Z,1.10
2022-07-28T15:30:35.958Z,1.58
2022-07-28T15:32:56.079Z,0.80
2022-07-28T15:34:59.240Z,0.73
2022-07-28T15:37:01.123Z,0.80
2022-07-28T15:39:03.027Z,0.80
2022-07-28T15:41:12.829Z,0.50
2022-07-28T15:43:15.066Z,0.52
2022-07-28T15:45:17.354Z,1.20
2022-07-28T15:47:19.188Z,1.42
2022-07-28T15:49:20.895Z,0.75
2022-07-28T15:51:26.087Z,0.70
2022-07-28T15:53:28.846Z,0.80
2022-07-28T15:55:30.937Z,0.98
2022-07-28T15:57:37.583Z,0.63
2022-07-28T15:59:49.133Z,0.70
2022-07-28T16:01:52.255Z,0.60
2022-07-28T16:03:54.909Z,0.85
2022-07-28T16:05:56.840Z,0.60
2022-07-28T16:08:06.642Z,1.77
2022-07-28T16:10:08.808Z,0.80
2022-07-28T16:12:12.911Z,0.45
2022-07-28T16:14:17.933Z,0.50
2022-07-28T16:16:20.029Z,0.60
2022-07-28T16:18:21.799Z,0.82
2022-07-28T16:20:24.745Z,0.90
2022-07-28T16:22:26.429Z,0.55
2022-07-28T16:24:28.228Z,0.60
2022-07-28T16:26:30.367Z,0.60
2022-07-28T16:28:32.166Z,0.60
2022-07-28T16:30:35.873Z,0.70
2022-07-28T16:32:38.575Z,0.70
2022-07-28T16:34:40.678Z,0.80
2022-07-28T16:36:42.405Z,0.75
2022-07-28T16:38:44.207Z,1.33
2022-07-28T16:40:46.403Z,0.70
2022-07-28T16:42:48.937Z,0.90
2022-07-28T16:44:50.717Z,0.95
2022-07-28T16:46:55.553Z,0.50
2022-07-28T16:48:57.652Z,1.02
2022-07-28T16:50:59.944Z,0.60
2022-07-28T16:53:04.999Z,0.70
2022-07-28T16:55:13.892Z,0.70
2022-07-28T16:57:17.330Z,0.82
2022-07-28T16:59:19.537Z,0.70
2022-07-28T17:01:21.416Z,0.90
2022-07-28T17:03:23.178Z,1.00
2022-07-28T17:05:25.346Z,1.27
2022-07-28T17:07:27.745Z,1.50
2022-07-28T17:09:29.600Z,1.67
2022-07-28T17:11:31.571Z,1.63
2022-07-28T17:13:33.509Z,3.13
2022-07-28T17:15:35.489Z,1.60
2022-07-28T17:17:38.923Z,1.02
2022-07-28T17:19:53.254Z,0.90
2022-07-28T17:21:55.071Z,0.65
2022-07-28T17:23:57.284Z,0.60
2022-07-28T17:27:11.818Z,0.73
2022-07-28T17:28:26.525Z,0.98
2022-07-28T17:30:29.725Z,1.00
2022-07-28T17:32:32.084Z,0.90
2022-07-28T17:34:34.897Z,0.65
2022-07-28T17:36:37.827Z,1.23
2022-07-28T17:38:40.496Z,1.25
2022-07-28T17:40:44.057Z,1.42
2022-07-28T17:42:46.972Z,0.70
2022-07-28T17:44:50.932Z,0.60
2022-07-28T17:46:53.308Z,0.50
2022-07-28T17:49:13.950Z,1.40
2022-07-28T17:53:21.575Z,0.70
2022-07-28T17:55:58.180Z,0.80
2022-07-28T17:58:32.669Z,1.10
2022-07-28T18:00:34.556Z,0.68
2022-07-28T18:02:37.621Z,1.77
2022-07-28T18:04:40.498Z,0.70
2022-07-28T18:06:46.020Z,0.93
2022-07-28T18:08:48.835Z,0.80
2022-07-28T18:10:51.340Z,0.85
2022-07-28T18:12:54.007Z,0.80
2022-07-28T18:14:55.954Z,0.60
2022-07-28T18:16:58.842Z,0.63
2022-07-28T18:19:02.210Z,0.50
2022-07-28T18:21:03.986Z,0.90
2022-07-28T18:23:07.886Z,0.65
2022-07-28T18:25:10.390Z,0.90
2022-07-28T18:27:12.178Z,0.95
2022-07-28T18:29:14.673Z,0.85
2022-07-28T18:31:16.523Z,1.33
2022-07-28T18:33:18.291Z,1.30
2022-07-28T18:35:21.679Z,2.28
2022-07-28T18:37:23.330Z,2.65
2022-07-28T18:39:25.310Z,1.75
2022-07-28T18:41:27.472Z,2.05
2022-07-28T18:43:37.358Z,1.30
2022-07-28T18:45:39.397Z,1.85
2022-07-28T18:47:46.458Z,1.05
2022-07-28T18:49:49.460Z,0.57
2022-07-28T18:51:53.308Z,0.85
2022-07-28T18:53:55.306Z,0.75
2022-07-28T18:55:57.121Z,0.80
2022-07-28T18:58:02.736Z,0.63
2022-07-28T19:00:09.788Z,0.47
2022-07-28T19:02:11.914Z,0.70
2022-07-28T19:04:14.045Z,0.70
2022-07-28T19:06:15.977Z,1.02
2022-07-28T19:08:17.797Z,0.70
2022-07-28T19:10:19.658Z,1.15
2022-07-28T19:12:21.905Z,0.70
2022-07-28T19:14:23.918Z,0.80
2022-07-28T19:16:26.060Z,0.90
2022-07-28T19:18:28.199Z,0.68
2022-07-28T19:20:30.159Z,0.68
2022-07-28T19:22:32.186Z,0.80
2022-07-28T19:24:35.366Z,0.63
2022-07-28T19:26:37.296Z,0.60
2022-07-28T19:28:39.328Z,0.50
2022-07-28T19:30:42.664Z,0.63
2022-07-28T19:32:44.773Z,0.90
2022-07-28T19:34:46.646Z,0.90
2022-07-28T19:36:48.848Z,0.70
2022-07-28T19:38:50.934Z,1.23
2022-07-28T19:40:52.782Z,0.75
2022-07-28T19:42:54.880Z,0.75
2022-07-28T19:44:56.909Z,0.85
2022-07-28T19:47:00.587Z,0.93
2022-07-28T19:49:02.680Z,0.85
2022-07-28T19:51:05.429Z,1.45
2022-07-28T19:53:07.686Z,1.63
2022-07-28T19:55:17.589Z,2.30
2022-07-28T19:57:19.873Z,2.42
2022-07-28T19:59:22.370Z,2.05
2022-07-28T20:01:24.612Z,3.10
2022-07-28T20:04:01.334Z,1.85
2022-07-28T20:05:49.082Z,1.30
2022-07-28T20:07:52.649Z,1.48
2022-07-28T20:09:55.351Z,1.80
2022-07-28T20:11:57.733Z,1.50
2022-07-28T20:14:00.456Z,1.33
2022-07-28T20:16:02.277Z,1.40
2022-07-28T20:18:04.977Z,1.20
2022-07-28T20:20:12.442Z,1.67
2022-07-28T20:22:17.249Z,2.00
2022-07-28T20:24:19.966Z,1.02
2022-07-28T20:26:23.781Z,1.30
2022-07-28T20:28:25.946Z,1.52
2022-07-28T20:30:27.633Z,1.60
2022-07-28T20:32:29.448Z,1.98
2022-07-28T20:34:31.185Z,2.05
2022-07-28T20:36:34.612Z,1.65
2022-07-28T20:38:36.309Z,1.30
2022-07-28T20:40:37.973Z,1.25
2022-07-28T20:42:39.813Z,1.42
2022-07-28T20:44:41.554Z,1.70
2022-07-28T20:46:43.527Z,1.55
2022-07-28T20:48:45.296Z,1.02
2022-07-28T20:50:47.403Z,1.42
2022-07-28T20:52:49.108Z,1.58
2022-07-28T20:54:54.224Z,1.55
2022-07-28T20:56:56.497Z,1.90
2022-07-28T20:59:00.557Z,1.42
2022-07-28T21:01:08.927Z,1.95
2022-07-28T21:03:10.625Z,1.75
2022-07-28T21:05:26.716Z,1.02
2022-07-28T21:08:00.682Z,1.85
2022-07-28T21:09:55.758Z,1.40
2022-07-28T21:11:57.470Z,1.77
2022-07-28T21:13:59.360Z,1.33
2022-07-28T21:16:01.020Z,1.10
2022-07-28T21:18:02.881Z,1.15
2022-07-28T21:20:06.099Z,1.00
2022-07-28T21:22:08.025Z,1.00
2022-07-28T21:24:09.788Z,1.33
2022-07-28T21:26:12.849Z,1.50
2022-07-28T21:28:33.490Z,1.58
2022-07-28T21:30:35.217Z,1.13
2022-07-28T21:32:36.901Z,1.80
2022-07-28T21:34:38.930Z,1.25
2022-07-28T21:36:40.644Z,1.00
2022-07-28T21:38:42.646Z,1.35
2022-07-28T21:40:44.304Z,1.30
2022-07-28T21:42:47.330Z,1.40
2022-07-28T21:44:49.047Z,1.95
2022-07-28T21:46:52.570Z,1.88
2022-07-28T21:48:59.115Z,1.35
2022-07-28T21:51:00.829Z,1.60
2022-07-28T21:53:02.927Z,1.38
2022-07-28T21:55:06.103Z,1.67
2022-07-28T21:57:16.351Z,1.08
2022-07-28T21:59:26.440Z,1.00
2022-07-28T22:01:28.778Z,1.10
2022-07-28T22:03:30.573Z,1.17
2022-07-28T22:05:32.289Z,0.90
2022-07-28T22:07:33.953Z,1.10
2022-07-28T22:09:37.992Z,1.17
2022-07-28T22:11:39.854Z,1.02
2022-07-28T22:13:41.487Z,1.10
2022-07-28T22:15:43.113Z,1.20
2022-07-28T22:17:44.758Z,1.15
2022-07-28T22:19:46.621Z,1.27
2022-07-28T22:21:48.291Z,1.10
2022-07-28T22:23:49.946Z,1.13
2022-07-28T22:25:51.680Z,0.70
2022-07-28T22:27:59.684Z,1.10
2022-07-28T22:30:02.945Z,1.08
2022-07-28T22:32:05.282Z,0.93
2022-07-28T22:34:07.009Z,1.08
2022-07-28T22:36:09.076Z,1.02
2022-07-28T22:38:10.903Z,0.70
2022-07-28T22:40:13.631Z,0.82
2022-07-28T22:42:15.371Z,0.98
2022-07-28T22:44:17.527Z,1.10
2022-07-28T22:46:19.569Z,1.40
2022-07-28T22:48:21.296Z,1.05
2022-07-28T22:50:22.961Z,1.20
2022-07-28T22:52:28.846Z,0.77
2022-07-28T22:54:30.511Z,1.23
2022-07-28T22:56:34.772Z,1.15
2022-07-28T22:58:40.245Z,0.90
2022-07-28T23:00:42.218Z,0.65
2022-07-28T23:02:44.444Z,0.85
2022-07-28T23:04:51.551Z,0.80
2022-07-28T23:06:53.799Z,1.02
2022-07-28T23:08:55.544Z,1.00
2022-07-28T23:10:57.313Z,0.88
2022-07-28T23:12:59.011Z,1.25
2022-07-28T23:15:00.783Z,0.85
2022-07-28T23:17:03.365Z,0.80
2022-07-28T23:19:05.250Z,0.77
2022-07-28T23:21:07.779Z,1.38
2022-07-28T23:23:10.736Z,0.90
2022-07-28T23:25:12.515Z,1.00
2022-07-28T23:27:14.247Z,0.77
2022-07-28T23:29:16.030Z,0.95
2022-07-28T23:31:17.831Z,1.15
2022-07-28T23:33:55.195Z,1.10
2022-07-28T23:35:41.907Z,1.13
2022-07-28T23:37:43.938Z,0.88
2022-07-28T23:39:45.952Z,1.00
2022-07-28T23:41:47.761Z,1.00
2022-07-28T23:43:49.620Z,0.90
2022-07-28T23:45:51.332Z,0.75
2022-07-28T23:47:59.660Z,0.75
2022-07-28T23:50:02.916Z,0.73
2022-07-28T23:52:04.907Z,0.80
2022-07-28T23:54:06.722Z,0.80
2022-07-28T23:56:08.854Z,0.75
2022-07-28T23:58:10.653Z,0.90
